Brainerd Lakes Regional Airport
KBRD : now visible

Airfield :











YOU CAN JOIN US ON...

 
LOGIN :

Register | Disclaimer

   EN    FR    IT 

 









Legend :    VFR   Marginal VFR   IFR   Intensive IFR   Very Intensive IFR
Visi :
Ceiling :
>= 8 km
>= 3000ft
5 to 8 km
1000 to 3000 ft
1500m to 5 km
500 to 1000 ft
800 to 1500m
200 to 500 ft
< 800m
< 200 ft
Symbols :   Thunderstorms  Fog  Heavy snow  Heavy precipitations  Wind > 20 kt






- Airport Elevation : 1232 ft


KBRD - Brainerd Lakes Regional

CURRENT METAR :
  • 121753Z AUTO 25010G21KT 10SM FEW100 18/M07 A3038 RMK AO2 SLP293 T01831072 10189 20022 57008

EXPIRED METARs :
  • 121653Z AUTO 20009G15KT 10SM CLR 18/M06 A3038 RMK AO2 SLP296 T01831061
  • 121553Z AUTO 28006KT 10SM CLR 17/M08 A3039 RMK AO2 SLP296 T01721078

TAF KBRD
Valid from the 12 at 18:00 until the 13 at 18:00 UTC


121720Z 1218/1318 20007G14KT P6SM FEW090 FEW250
FM122200 20007KT P6SM FEW090 FEW250
FM130100 VRB04KT P6SM FEW250
FM131700 20010G17KT P6SM FEW060 FEW250
KZMP FIR / North America



MET'MAP, your aeronautical weather chart ! - Copyright ORBIFLY December 2007 - Disclaimer

ORBIFLY MET'MAP TEAM :

Programming & Development : Alexandra Zaïnal
Concept & original design : Baudouin d'Aumeries
Assistance for programming : Marc-Olivier Méhu
Technical & hardware support : Manuel Goepfert

Contact : metmap@orbifly.com




SOURCES & CREDITS :

   NOAA       Earth
Advisory